sensor_id;sensor_type;location;lat;lon;timestamp;pressure;altitude;pressure_sealevel;temperature;humidity
58955;BME280;45815;52.334;5.024;2024-01-30T00:02:22;102580.13;;;8.21;100.00
58955;BME280;45815;52.334;5.024;2024-01-30T00:04:48;102592.41;;;8.22;100.00
58955;BME280;45815;52.334;5.024;2024-01-30T00:07:13;102581.09;;;8.23;100.00
58955;BME280;45815;52.334;5.024;2024-01-30T00:09:38;102584.56;;;8.22;100.00
58955;BME280;45815;52.334;5.024;2024-01-30T00:12:07;102586.09;;;8.19;100.00
58955;BME280;45815;52.334;5.024;2024-01-30T00:14:32;102561.75;;;8.05;100.00
58955;BME280;45815;52.334;5.024;2024-01-30T00:16:58;102576.34;;;8.16;100.00
58955;BME280;45815;52.334;5.024;2024-01-30T00:19:23;102581.41;;;8.13;100.00
58955;BME280;45815;52.334;5.024;2024-01-30T00:21:49;102580.59;;;8.14;100.00
58955;BME280;45815;52.334;5.024;2024-01-30T00:24:14;102570.13;;;8.14;100.00
58955;BME280;45815;52.334;5.024;2024-01-30T00:26:39;102571.84;;;8.14;100.00
58955;BME280;45815;52.334;5.024;2024-01-30T00:29:05;102569.13;;;8.12;100.00
58955;BME280;45815;52.334;5.024;2024-01-30T00:31:30;102567.50;;;8.14;100.00
58955;BME280;45815;52.334;5.024;2024-01-30T00:33:56;102570.13;;;8.14;100.00
58955;BME280;45815;52.334;5.024;2024-01-30T00:36:21;102565.47;;;8.09;100.00
58955;BME280;45815;52.334;5.024;2024-01-30T00:38:46;102573.72;;;8.16;100.00
58955;BME280;45815;52.334;5.024;2024-01-30T00:41:12;102560.50;;;8.13;100.00
58955;BME280;45815;52.334;5.024;2024-01-30T00:43:38;102562.47;;;8.17;100.00
58955;BME280;45815;52.334;5.024;2024-01-30T00:46:03;102554.16;;;8.10;100.00
58955;BME280;45815;52.334;5.024;2024-01-30T00:48:29;102566.97;;;8.20;100.00
58955;BME280;45815;52.334;5.024;2024-01-30T00:50:54;102576.72;;;8.22;100.00
58955;BME280;45815;52.334;5.024;2024-01-30T00:53:20;102554.44;;;8.14;100.00
58955;BME280;45815;52.334;5.024;2024-01-30T00:55:45;102577.50;;;8.21;100.00
58955;BME280;45815;52.334;5.024;2024-01-30T00:58:11;102575.09;;;8.24;100.00
58955;BME280;45815;52.334;5.024;2024-01-30T01:00:36;102564.69;;;8.26;100.00
58955;BME280;45815;52.334;5.024;2024-01-30T01:03:02;102559.66;;;8.29;100.00
58955;BME280;45815;52.334;5.024;2024-01-30T01:05:28;102559.72;;;8.31;100.00
58955;BME280;45815;52.334;5.024;2024-01-30T01:07:53;102558.03;;;8.31;100.00
58955;BME280;45815;52.334;5.024;2024-01-30T01:10:19;102558.91;;;8.32;100.00
58955;BME280;45815;52.334;5.024;2024-01-30T01:12:45;102559.91;;;8.34;100.00
58955;BME280;45815;52.334;5.024;2024-01-30T01:15:11;102552.06;;;8.34;100.00
58955;BME280;45815;52.334;5.024;2024-01-30T01:17:37;102553.75;;;8.33;100.00
58955;BME280;45815;52.334;5.024;2024-01-30T01:20:03;102560.69;;;8.33;100.00
58955;BME280;45815;52.334;5.024;2024-01-30T01:22:30;102566.91;;;8.35;100.00
58955;BME280;45815;52.334;5.024;2024-01-30T01:24:56;102562.59;;;8.35;100.00
58955;BME280;45815;52.334;5.024;2024-01-30T01:27:21;102569.69;;;8.38;100.00
58955;BME280;45815;52.334;5.024;2024-01-30T01:29:46;102559.22;;;8.38;100.00
58955;BME280;45815;52.334;5.024;2024-01-30T01:32:12;102546.63;;;8.31;100.00
58955;BME280;45815;52.334;5.024;2024-01-30T01:34:37;102567.09;;;8.38;100.00
58955;BME280;45815;52.334;5.024;2024-01-30T01:37:03;102571.63;;;8.40;100.00
58955;BME280;45815;52.334;5.024;2024-01-30T01:39:28;102570.91;;;8.43;100.00
58955;BME280;45815;52.334;5.024;2024-01-30T01:41:53;102564.84;;;8.44;100.00
58955;BME280;45815;52.334;5.024;2024-01-30T01:44:19;102557.16;;;8.47;100.00
58955;BME280;45815;52.334;5.024;2024-01-30T01:46:44;102559.88;;;8.49;100.00
58955;BME280;45815;52.334;5.024;2024-01-30T01:49:10;102552.91;;;8.49;100.00
58955;BME280;45815;52.334;5.024;2024-01-30T01:51:36;102552.13;;;8.50;100.00
58955;BME280;45815;52.334;5.024;2024-01-30T01:54:04;102553.91;;;8.51;100.00
58955;BME280;45815;52.334;5.024;2024-01-30T01:56:31;102547.88;;;8.52;100.00
58955;BME280;45815;52.334;5.024;2024-01-30T01:59:00;102553.16;;;8.54;100.00
58955;BME280;45815;52.334;5.024;2024-01-30T02:01:27;102539.19;;;8.53;100.00
58955;BME280;45815;52.334;5.024;2024-01-30T02:03:52;102533.22;;;8.56;100.00
58955;BME280;45815;52.334;5.024;2024-01-30T02:06:18;102529.72;;;8.55;100.00
58955;BME280;45815;52.334;5.024;2024-01-30T02:08:44;102517.44;;;8.54;100.00
58955;BME280;45815;52.334;5.024;2024-01-30T02:11:10;102520.88;;;8.53;100.00
58955;BME280;45815;52.334;5.024;2024-01-30T02:13:36;102518.16;;;8.52;100.00
58955;BME280;45815;52.334;5.024;2024-01-30T02:16:02;102512.88;;;8.50;100.00
58955;BME280;45815;52.334;5.024;2024-01-30T02:18:27;102522.34;;;8.48;100.00
58955;BME280;45815;52.334;5.024;2024-01-30T02:20:54;102520.63;;;8.49;100.00
58955;BME280;45815;52.334;5.024;2024-01-30T02:23:23;102510.16;;;8.49;100.00
58955;BME280;45815;52.334;5.024;2024-01-30T02:25:49;102538.03;;;8.48;100.00
58955;BME280;45815;52.334;5.024;2024-01-30T02:28:15;102536.22;;;8.47;100.00
58955;BME280;45815;52.334;5.024;2024-01-30T02:30:42;102534.34;;;8.44;100.00
58955;BME280;45815;52.334;5.024;2024-01-30T02:33:08;102527.59;;;8.48;100.00
58955;BME280;45815;52.334;5.024;2024-01-30T02:35:33;102519.72;;;8.48;100.00
58955;BME280;45815;52.334;5.024;2024-01-30T02:37:59;102508.13;;;8.43;100.00
58955;BME280;45815;52.334;5.024;2024-01-30T02:40:25;102510.25;;;8.50;100.00
58955;BME280;45815;52.334;5.024;2024-01-30T02:42:50;102513.50;;;8.46;100.00
58955;BME280;45815;52.334;5.024;2024-01-30T02:45:16;102518.00;;;8.49;100.00
58955;BME280;45815;52.334;5.024;2024-01-30T02:47:41;102510.16;;;8.49;100.00
58955;BME280;45815;52.334;5.024;2024-01-30T02:50:07;102506.81;;;8.51;100.00
58955;BME280;45815;52.334;5.024;2024-01-30T02:52:32;102513.91;;;8.54;100.00
58955;BME280;45815;52.334;5.024;2024-01-30T02:54:58;102509.31;;;8.50;100.00
58955;BME280;45815;52.334;5.024;2024-01-30T02:57:23;102505.75;;;8.48;100.00
58955;BME280;45815;52.334;5.024;2024-01-30T02:59:49;102505.00;;;8.50;100.00
58955;BME280;45815;52.334;5.024;2024-01-30T03:02:14;102501.41;;;8.48;100.00
58955;BME280;45815;52.334;5.024;2024-01-30T03:04:43;102505.75;;;8.48;100.00
58955;BME280;45815;52.334;5.024;2024-01-30T03:07:08;102503.19;;;8.49;100.00
58955;BME280;45815;52.334;5.024;2024-01-30T03:09:34;102499.59;;;8.47;100.00
58955;BME280;45815;52.334;5.024;2024-01-30T03:11:59;102483.34;;;8.38;100.00
58955;BME280;45815;52.334;5.024;2024-01-30T03:14:25;102498.78;;;8.48;100.00
58955;BME280;45815;52.334;5.024;2024-01-30T03:16:51;102489.31;;;8.50;100.00
58955;BME280;45815;52.334;5.024;2024-01-30T03:19:16;102482.25;;;8.49;100.00
58955;BME280;45815;52.334;5.024;2024-01-30T03:21:42;102473.59;;;8.50;100.00
58955;BME280;45815;52.334;5.024;2024-01-30T03:24:07;102476.22;;;8.50;100.00
58955;BME280;45815;52.334;5.024;2024-01-30T03:26:32;102474.41;;;8.49;100.00
58955;BME280;45815;52.334;5.024;2024-01-30T03:28:58;102464.78;;;8.48;100.00
58955;BME280;45815;52.334;5.024;2024-01-30T03:31:23;102459.53;;;8.48;100.00
58955;BME280;45815;52.334;5.024;2024-01-30T03:33:49;102455.28;;;8.50;100.00
58955;BME280;45815;52.334;5.024;2024-01-30T03:36:15;102453.06;;;8.41;100.00
58955;BME280;45815;52.334;5.024;2024-01-30T03:38:41;102471.63;;;8.46;100.00
58955;BME280;45815;52.334;5.024;2024-01-30T03:41:09;102465.41;;;8.44;100.00
58955;BME280;45815;52.334;5.024;2024-01-30T03:43:35;102466.41;;;8.46;100.00
58955;BME280;45815;52.334;5.024;2024-01-30T03:46:02;102462.81;;;8.44;100.00
58955;BME280;45815;52.334;5.024;2024-01-30T03:48:29;102473.28;;;8.44;100.00
58955;BME280;45815;52.334;5.024;2024-01-30T03:50:54;102480.28;;;8.45;100.00
58955;BME280;45815;52.334;5.024;2024-01-30T03:53:20;102475.72;;;8.41;100.00
58955;BME280;45815;52.334;5.024;2024-01-30T03:55:45;102473.13;;;8.41;100.00
58955;BME280;45815;52.334;5.024;2024-01-30T03:58:10;102472.38;;;8.43;100.00
58955;BME280;45815;52.334;5.024;2024-01-30T04:00:36;102478.50;;;8.44;100.00
58955;BME280;45815;52.334;5.024;2024-01-30T04:03:01;102472.38;;;8.43;100.00
58955;BME280;45815;52.334;5.024;2024-01-30T04:05:27;102469.81;;;8.45;100.00
58955;BME280;45815;52.334;5.024;2024-01-30T04:07:52;102465.50;;;8.45;100.00
58955;BME280;45815;52.334;5.024;2024-01-30T04:10:17;102467.38;;;8.48;100.00
58955;BME280;45815;52.334;5.024;2024-01-30T04:12:43;102462.97;;;8.47;100.00
58955;BME280;45815;52.334;5.024;2024-01-30T04:15:08;102458.72;;;8.49;100.00
58955;BME280;45815;52.334;5.024;2024-01-30T04:17:34;102456.97;;;8.50;100.00
58955;BME280;45815;52.334;5.024;2024-01-30T04:19:59;102465.66;;;8.49;100.00
58955;BME280;45815;52.334;5.024;2024-01-30T04:22:25;102461.31;;;8.49;100.00
58955;BME280;45815;52.334;5.024;2024-01-30T04:24:50;102457.81;;;8.49;100.00
58955;BME280;45815;52.334;5.024;2024-01-30T04:27:15;102465.41;;;8.44;100.00
58955;BME280;45815;52.334;5.024;2024-01-30T04:29:41;102464.59;;;8.45;100.00
58955;BME280;45815;52.334;5.024;2024-01-30T04:32:06;102467.28;;;8.47;100.00
58955;BME280;45815;52.334;5.024;2024-01-30T04:34:32;102462.97;;;8.47;100.00
58955;BME280;45815;52.334;5.024;2024-01-30T04:36:57;102463.94;;;8.49;100.00
58955;BME280;45815;52.334;5.024;2024-01-30T04:39:22;102456.97;;;8.50;100.00
58955;BME280;45815;52.334;5.024;2024-01-30T04:41:48;102439.91;;;8.40;100.00
58955;BME280;45815;52.334;5.024;2024-01-30T04:44:14;102453.47;;;8.49;100.00
58955;BME280;45815;52.334;5.024;2024-01-30T04:46:39;102443.91;;;8.50;100.00
58955;BME280;45815;52.334;5.024;2024-01-30T04:49:05;102451.69;;;8.48;100.00
58955;BME280;45815;52.334;5.024;2024-01-30T04:51:33;102446.50;;;8.50;100.00
58955;BME280;45815;52.334;5.024;2024-01-30T04:53:58;102440.56;;;8.52;100.00
58955;BME280;45815;52.334;5.024;2024-01-30T04:56:24;102439.84;;;8.55;100.00
58955;BME280;45815;52.334;5.024;2024-01-30T04:58:49;102435.50;;;8.55;100.00
58955;BME280;45815;52.334;5.024;2024-01-30T05:01:15;102435.66;;;8.58;100.00
58955;BME280;45815;52.334;5.024;2024-01-30T05:03:41;102422.91;;;8.48;100.00
58955;BME280;45815;52.334;5.024;2024-01-30T05:06:06;102431.41;;;8.60;100.00
58955;BME280;45815;52.334;5.024;2024-01-30T05:08:32;102430.56;;;8.61;100.00
58955;BME280;45815;52.334;5.024;2024-01-30T05:11:00;102434.16;;;8.63;100.00
58955;BME280;45815;52.334;5.024;2024-01-30T05:13:25;102428.13;;;8.64;100.00
58955;BME280;45815;52.334;5.024;2024-01-30T05:15:51;102428.44;;;8.71;100.00
58955;BME280;45815;52.334;5.024;2024-01-30T05:18:16;102425.00;;;8.72;100.00
58955;BME280;45815;52.334;5.024;2024-01-30T05:20:42;102421.56;;;8.73;100.00
58955;BME280;45815;52.334;5.024;2024-01-30T05:23:07;102423.44;;;8.75;100.00
58955;BME280;45815;52.334;5.024;2024-01-30T05:25:33;102431.38;;;8.77;100.00
58955;BME280;45815;52.334;5.024;2024-01-30T05:27:58;102429.75;;;8.79;100.00
58955;BME280;45815;52.334;5.024;2024-01-30T05:30:24;102431.53;;;8.80;100.00
58955;BME280;45815;52.334;5.024;2024-01-30T05:32:49;102431.53;;;8.80;100.00
58955;BME280;45815;52.334;5.024;2024-01-30T05:35:15;102419.13;;;8.76;100.00
58955;BME280;45815;52.334;5.024;2024-01-30T05:37:40;102430.06;;;8.85;100.00
58955;BME280;45815;52.334;5.024;2024-01-30T05:40:06;102425.72;;;8.85;100.00
58955;BME280;45815;52.334;5.024;2024-01-30T05:42:32;102435.13;;;8.82;100.00
58955;BME280;45815;52.334;5.024;2024-01-30T05:44:57;102431.09;;;8.88;100.00
58955;BME280;45815;52.334;5.024;2024-01-30T05:47:23;102437.41;;;8.92;100.00
58955;BME280;45815;52.334;5.024;2024-01-30T05:49:49;102440.09;;;8.94;100.00
58955;BME280;45815;52.334;5.024;2024-01-30T05:52:15;102424.47;;;8.95;100.00
58955;BME280;45815;52.334;5.024;2024-01-30T05:54:40;102439.34;;;8.96;100.00
58955;BME280;45815;52.334;5.024;2024-01-30T05:57:06;102437.72;;;8.98;100.00
58955;BME280;45815;52.334;5.024;2024-01-30T05:59:31;102434.34;;;9.01;100.00
58955;BME280;45815;52.334;5.024;2024-01-30T06:01:57;102429.19;;;9.02;100.00
58955;BME280;45815;52.334;5.024;2024-01-30T06:04:23;102432.31;;;8.95;100.00
58955;BME280;45815;52.334;5.024;2024-01-30T06:06:48;102435.94;;;8.97;100.00
58955;BME280;45815;52.334;5.024;2024-01-30T06:09:14;102428.31;;;9.02;100.00
58955;BME280;45815;52.334;5.024;2024-01-30T06:11:39;102426.66;;;9.04;100.00
58955;BME280;45815;52.334;5.024;2024-01-30T06:14:05;102416.19;;;9.04;100.00
58955;BME280;45815;52.334;5.024;2024-01-30T06:16:30;102418.97;;;9.07;100.00
58955;BME280;45815;52.334;5.024;2024-01-30T06:18:56;102417.22;;;9.07;100.00
58955;BME280;45815;52.334;5.024;2024-01-30T06:21:21;102420.81;;;9.09;100.00
58955;BME280;45815;52.334;5.024;2024-01-30T06:23:47;102425.22;;;9.11;100.00
58955;BME280;45815;52.334;5.024;2024-01-30T06:26:12;102431.41;;;9.11;100.00
58955;BME280;45815;52.334;5.024;2024-01-30T06:28:37;102435.66;;;9.09;100.00
58955;BME280;45815;52.334;5.024;2024-01-30T06:31:03;102447.16;;;9.13;100.00
58955;BME280;45815;52.334;5.024;2024-01-30T06:33:28;102440.28;;;9.15;100.00
58955;BME280;45815;52.334;5.024;2024-01-30T06:35:54;102440.28;;;9.15;100.00
58955;BME280;45815;52.334;5.024;2024-01-30T06:38:19;102440.00;;;9.08;100.00
58955;BME280;45815;52.334;5.024;2024-01-30T06:40:44;102443.81;;;9.15;100.00
58955;BME280;45815;52.334;5.024;2024-01-30T06:43:10;102447.34;;;9.16;100.00
58955;BME280;45815;52.334;5.024;2024-01-30T06:45:35;102420.81;;;9.09;100.00
58955;BME280;45815;52.334;5.024;2024-01-30T06:48:00;102437.75;;;9.16;100.00
58955;BME280;45815;52.334;5.024;2024-01-30T06:50:26;102440.47;;;9.18;100.00
58955;BME280;45815;52.334;5.024;2024-01-30T06:52:52;102436.69;;;9.13;100.00
58955;BME280;45815;52.334;5.024;2024-01-30T06:55:18;102430.69;;;9.15;100.00
58955;BME280;45815;52.334;5.024;2024-01-30T06:57:43;102422.31;;;9.04;100.00
58955;BME280;45815;52.334;5.024;2024-01-30T07:00:09;102424.28;;;9.08;100.00
58955;BME280;45815;52.334;5.024;2024-01-30T07:02:35;102440.28;;;9.15;100.00
58955;BME280;45815;52.334;5.024;2024-01-30T07:05:00;102414.53;;;9.06;100.00
58955;BME280;45815;52.334;5.024;2024-01-30T07:07:25;102442.16;;;9.17;100.00
58955;BME280;45815;52.334;5.024;2024-01-30T07:09:51;102439.63;;;9.19;100.00
58955;BME280;45815;52.334;5.024;2024-01-30T07:12:24;102445.75;;;9.19;100.00
58955;BME280;45815;52.334;5.024;2024-01-30T07:14:51;102450.03;;;9.17;100.00
58955;BME280;45815;52.334;5.024;2024-01-30T07:17:16;102450.19;;;9.20;100.00
58955;BME280;45815;52.334;5.024;2024-01-30T07:19:42;102455.59;;;9.23;100.00
58955;BME280;45815;52.334;5.024;2024-01-30T07:22:08;102447.50;;;9.19;100.00
58955;BME280;45815;52.334;5.024;2024-01-30T07:24:33;102457.38;;;9.24;100.00
58955;BME280;45815;52.334;5.024;2024-01-30T07:26:59;102460.97;;;9.26;100.00
58955;BME280;45815;52.334;5.024;2024-01-30T07:29:24;102461.94;;;9.28;100.00
58955;BME280;45815;52.334;5.024;2024-01-30T07:31:49;102468.78;;;9.25;100.00
58955;BME280;45815;52.334;5.024;2024-01-30T07:34:15;102472.50;;;9.30;100.00
58955;BME280;45815;52.334;5.024;2024-01-30T07:36:40;102473.25;;;9.27;100.00
58955;BME280;45815;52.334;5.024;2024-01-30T07:39:06;102471.16;;;9.38;100.00
58955;BME280;45815;52.334;5.024;2024-01-30T07:41:31;102470.41;;;9.41;100.00
58955;BME280;45815;52.334;5.024;2024-01-30T07:43:57;102470.34;;;9.39;100.00
58955;BME280;45815;52.334;5.024;2024-01-30T07:46:22;102472.06;;;9.39;100.00
58955;BME280;45815;52.334;5.024;2024-01-30T07:48:48;102476.72;;;9.44;100.00
58955;BME280;45815;52.334;5.024;2024-01-30T07:51:13;102478.50;;;9.45;100.00
58955;BME280;45815;52.334;5.024;2024-01-30T07:53:39;102483.75;;;9.45;100.00
58955;BME280;45815;52.334;5.024;2024-01-30T07:56:05;102483.09;;;9.49;100.00
58955;BME280;45815;52.334;5.024;2024-01-30T07:58:31;102486.53;;;9.48;100.00
58955;BME280;45815;52.334;5.024;2024-01-30T08:00:56;102490.19;;;9.52;100.00
58955;BME280;45815;52.334;5.024;2024-01-30T08:03:24;102477.63;;;9.45;100.00
58955;BME280;45815;52.334;5.024;2024-01-30T08:05:49;102469.84;;;9.46;100.00
58955;BME280;45815;52.334;5.024;2024-01-30T08:08:15;102487.16;;;9.61;100.00
58955;BME280;45815;52.334;5.024;2024-01-30T08:10:40;102486.31;;;9.62;100.00
58955;BME280;45815;52.334;5.024;2024-01-30T08:13:05;102496.88;;;9.63;100.00
58955;BME280;45815;52.334;5.024;2024-01-30T08:15:31;102484.84;;;9.67;100.00
58955;BME280;45815;52.334;5.024;2024-01-30T08:17:56;102490.09;;;9.67;100.00
58955;BME280;45815;52.334;5.024;2024-01-30T08:20:24;102496.28;;;9.69;100.00
58955;BME280;45815;52.334;5.024;2024-01-30T08:22:49;102496.50;;;9.73;100.00
58955;BME280;45815;52.334;5.024;2024-01-30T08:25:15;102497.47;;;9.76;100.00
58955;BME280;45815;52.334;5.024;2024-01-30T08:27:40;102494.09;;;9.78;100.00
58955;BME280;45815;52.334;5.024;2024-01-30T08:30:06;102493.34;;;9.81;100.00
58955;BME280;45815;52.334;5.024;2024-01-30T08:32:32;102494.28;;;9.81;100.00
58955;BME280;45815;52.334;5.024;2024-01-30T08:34:58;102496.38;;;9.88;100.00
58955;BME280;45815;52.334;5.024;2024-01-30T08:37:23;102495.66;;;9.92;100.00
58955;BME280;45815;52.334;5.024;2024-01-30T08:39:49;102497.47;;;9.93;100.00
58955;BME280;45815;52.334;5.024;2024-01-30T08:42:14;102495.84;;;9.96;100.00
58955;BME280;45815;52.334;5.024;2024-01-30T08:44:42;102500.25;;;9.97;100.00
58955;BME280;45815;52.334;5.024;2024-01-30T08:47:08;102502.19;;;10.01;100.00
58955;BME280;45815;52.334;5.024;2024-01-30T08:49:33;102498.91;;;10.05;100.00
58955;BME280;45815;52.334;5.024;2024-01-30T08:51:58;102505.13;;;10.07;100.00
58955;BME280;45815;52.334;5.024;2024-01-30T08:54:24;102500.69;;;10.06;100.00
58955;BME280;45815;52.334;5.024;2024-01-30T08:56:49;102510.41;;;10.08;100.00
58955;BME280;45815;52.334;5.024;2024-01-30T08:59:14;102510.41;;;10.08;100.00
58955;BME280;45815;52.334;5.024;2024-01-30T09:01:40;102509.66;;;10.11;100.00
58955;BME280;45815;52.334;5.024;2024-01-30T09:04:05;102515.91;;;10.13;100.00
58955;BME280;45815;52.334;5.024;2024-01-30T09:06:31;102509.84;;;10.14;100.00
58955;BME280;45815;52.334;5.024;2024-01-30T09:08:56;102510.09;;;10.20;100.00
58955;BME280;45815;52.334;5.024;2024-01-30T09:11:23;102512.81;;;10.22;100.00
58955;BME280;45815;52.334;5.024;2024-01-30T09:13:48;102511.22;;;10.25;100.00
58955;BME280;45815;52.334;5.024;2024-01-30T09:16:14;102513.84;;;10.25;100.00
58955;BME280;45815;52.334;5.024;2024-01-30T09:18:41;102523.53;;;10.26;100.00
58955;BME280;45815;52.334;5.024;2024-01-30T09:21:06;102524.34;;;10.25;100.00
58955;BME280;45815;52.334;5.024;2024-01-30T09:23:32;102524.34;;;10.25;100.00
58955;BME280;45815;52.334;5.024;2024-01-30T09:25:57;102517.44;;;10.27;100.00
58955;BME280;45815;52.334;5.024;2024-01-30T09:28:23;102528.13;;;10.30;100.00
58955;BME280;45815;52.334;5.024;2024-01-30T09:30:48;102516.66;;;10.28;100.00
58955;BME280;45815;52.334;5.024;2024-01-30T09:33:13;102518.44;;;10.29;100.00
58955;BME280;45815;52.334;5.024;2024-01-30T09:35:39;102516.00;;;10.32;100.00
58955;BME280;45815;52.334;5.024;2024-01-30T09:38:04;102516.94;;;10.34;100.00
58955;BME280;45815;52.334;5.024;2024-01-30T09:40:30;102520.53;;;10.37;100.00
58955;BME280;45815;52.334;5.024;2024-01-30T09:42:55;102521.50;;;10.39;100.00
58955;BME280;45815;52.334;5.024;2024-01-30T09:45:24;102535.59;;;10.41;100.00
58955;BME280;45815;52.334;5.024;2024-01-30T09:47:50;102541.16;;;10.47;100.00
58955;BME280;45815;52.334;5.024;2024-01-30T09:50:16;102534.31;;;10.50;100.00
58955;BME280;45815;52.334;5.024;2024-01-30T09:52:46;102541.44;;;10.53;100.00
58955;BME280;45815;52.334;5.024;2024-01-30T09:55:12;102536.38;;;10.57;100.00
58955;BME280;45815;52.334;5.024;2024-01-30T09:57:37;102542.59;;;10.60;100.00
58955;BME280;45815;52.334;5.024;2024-01-30T10:00:03;102528.03;;;10.66;100.00
58955;BME280;45815;52.334;5.024;2024-01-30T10:02:38;102541.31;;;10.69;100.00
58955;BME280;45815;52.334;5.024;2024-01-30T10:05:04;102538.84;;;10.72;100.00
58955;BME280;45815;52.334;5.024;2024-01-30T10:07:29;102551.25;;;10.76;100.00
58955;BME280;45815;52.334;5.024;2024-01-30T10:09:56;102530.31;;;10.78;100.00
58955;BME280;45815;52.334;5.024;2024-01-30T10:12:29;102534.31;;;10.70;100.00
58955;BME280;45815;52.334;5.024;2024-01-30T10:14:56;102552.09;;;10.75;100.00
58955;BME280;45815;52.334;5.024;2024-01-30T10:17:25;102544.47;;;10.62;100.00
58955;BME280;45815;52.334;5.024;2024-01-30T10:19:50;102565.22;;;10.56;100.00
58955;BME280;45815;52.334;5.024;2024-01-30T10:22:16;102559.88;;;10.54;100.00
58955;BME280;45815;52.334;5.024;2024-01-30T10:24:42;102560.50;;;10.49;100.00
58955;BME280;45815;52.334;5.024;2024-01-30T10:27:08;102563.31;;;10.53;100.00
58955;BME280;45815;52.334;5.024;2024-01-30T10:29:33;102560.44;;;10.47;100.00
58955;BME280;45815;52.334;5.024;2024-01-30T10:32:02;102554.81;;;10.40;100.00
58955;BME280;45815;52.334;5.024;2024-01-30T10:34:27;102561.84;;;10.41;100.00
58955;BME280;45815;52.334;5.024;2024-01-30T10:39:28;102566.66;;;10.31;100.00
58955;BME280;45815;52.334;5.024;2024-01-30T10:41:56;102574.84;;;10.38;100.00
58955;BME280;45815;52.334;5.024;2024-01-30T10:44:26;102567.56;;;10.32;100.00
58955;BME280;45815;52.334;5.024;2024-01-30T10:47:00;102574.63;;;10.33;100.00
58955;BME280;45815;52.334;5.024;2024-01-30T10:49:28;102576.81;;;10.25;100.00
58955;BME280;45815;52.334;5.024;2024-01-30T10:51:55;102586.72;;;10.13;100.00
58955;BME280;45815;52.334;5.024;2024-01-30T10:54:20;102583.13;;;10.11;100.00
58955;BME280;45815;52.334;5.024;2024-01-30T10:56:47;102588.31;;;10.09;100.00
58955;BME280;45815;52.334;5.024;2024-01-30T10:59:14;102598.72;;;10.08;100.00
58955;BME280;45815;52.334;5.024;2024-01-30T11:01:39;102591.16;;;9.96;100.00
58955;BME280;45815;52.334;5.024;2024-01-30T11:04:05;102596.19;;;9.91;100.00
58955;BME280;45815;52.334;5.024;2024-01-30T11:06:40;102594.06;;;9.84;100.00
58955;BME280;45815;52.334;5.024;2024-01-30T11:09:10;102578.78;;;9.76;100.00
58955;BME280;45815;52.334;5.024;2024-01-30T11:11:59;102588.97;;;9.69;100.00
58955;BME280;45815;52.334;5.024;2024-01-30T11:14:29;102599.19;;;9.81;100.00
58955;BME280;45815;52.334;5.024;2024-01-30T11:16:59;102597.53;;;9.83;100.00
58955;BME280;45815;52.334;5.024;2024-01-30T11:19:30;102596.31;;;9.77;100.00
58955;BME280;45815;52.334;5.024;2024-01-30T11:21:56;102609.94;;;9.69;100.00
58955;BME280;45815;52.334;5.024;2024-01-30T11:24:24;102603.53;;;9.64;100.00
58955;BME280;45815;52.334;5.024;2024-01-30T11:26:56;102605.13;;;9.61;100.00
58955;BME280;45815;52.334;5.024;2024-01-30T11:29:27;102602.34;;;9.58;100.00
58955;BME280;45815;52.334;5.024;2024-01-30T11:31:58;102605.94;;;9.60;100.00
58955;BME280;45815;52.334;5.024;2024-01-30T11:34:24;102619.03;;;9.60;100.00
58955;BME280;45815;52.334;5.024;2024-01-30T11:36:56;102621.84;;;9.46;100.00
58955;BME280;45815;52.334;5.024;2024-01-30T11:39:27;102623.81;;;9.50;100.00
58955;BME280;45815;52.334;5.024;2024-01-30T11:41:55;102626.03;;;9.43;100.00
58955;BME280;45815;52.334;5.024;2024-01-30T11:44:21;102632.00;;;9.40;100.00
58955;BME280;45815;52.334;5.024;2024-01-30T11:46:48;102616.22;;;9.22;100.00
58955;BME280;45815;52.334;5.024;2024-01-30T11:49:13;102621.63;;;9.25;100.00
58955;BME280;45815;52.334;5.024;2024-01-30T11:51:39;102614.19;;;9.17;100.00
58955;BME280;45815;52.334;5.024;2024-01-30T11:54:04;102604.34;;;9.13;100.00
58955;BME280;45815;52.334;5.024;2024-01-30T11:56:30;102623.66;;;9.15;100.00
58955;BME280;45815;52.334;5.024;2024-01-30T11:58:55;102622.03;;;9.17;100.00
58955;BME280;45815;52.334;5.024;2024-01-30T12:01:21;102619.41;;;9.17;100.00
58955;BME280;45815;52.334;5.024;2024-01-30T12:03:50;102619.16;;;9.12;100.00
58955;BME280;45815;52.334;5.024;2024-01-30T12:06:16;102594.19;;;9.19;100.00
58955;BME280;45815;52.334;5.024;2024-01-30T12:08:41;102612.13;;;9.27;100.00
58955;BME280;45815;52.334;5.024;2024-01-30T12:11:07;102615.75;;;9.29;100.00
58955;BME280;45815;52.334;5.024;2024-01-30T12:13:33;102620.31;;;9.34;100.00
58955;BME280;45815;52.334;5.024;2024-01-30T12:15:59;102613.38;;;9.34;100.00
58955;BME280;45815;52.334;5.024;2024-01-30T12:18:25;102618.75;;;9.37;100.00
58955;BME280;45815;52.334;5.024;2024-01-30T12:20:59;102621.38;;;9.37;100.00
58955;BME280;45815;52.334;5.024;2024-01-30T12:23:26;102619.81;;;9.41;100.00
58955;BME280;45815;52.334;5.024;2024-01-30T12:25:52;102630.38;;;9.42;100.00
58955;BME280;45815;52.334;5.024;2024-01-30T12:28:19;102628.41;;;9.38;100.00
58955;BME280;45815;52.334;5.024;2024-01-30T12:30:45;102633.00;;;9.42;100.00
58955;BME280;45815;52.334;5.024;2024-01-30T12:33:16;102636.22;;;9.37;100.00
58955;BME280;45815;52.334;5.024;2024-01-30T12:35:45;102638.09;;;9.23;100.00
58955;BME280;45815;52.334;5.024;2024-01-30T12:38:11;102648.97;;;9.30;100.00
58955;BME280;45815;52.334;5.024;2024-01-30T12:40:36;102645.53;;;9.32;100.00
58955;BME280;45815;52.334;5.024;2024-01-30T12:43:02;102644.22;;;9.23;100.00
58955;BME280;45815;52.334;5.024;2024-01-30T12:45:28;102633.91;;;9.26;100.00